Station: Maningrida Airport  

  Atmospheric Gas Attenuation - ITU Rec 676-11   ----------------- dB/100km -----------------
Date Time Temp RH % AH g/m3 Dew Point Wind Direction Speed kph Gust kph Barometer mB Rainfall Since 9am 24GHz 47GHz 76GHz 122GHz 134GHz 241GHz
04/05 08:30 28 77 20.94 23.6 15 24 1011.7 0 44.8 42.2 83.1 220.0 245.1 851.8
04/05 08:20 27.3 78 20.41 23.1 15 17 1011.5 0 43.7 41.5 81.3 215.3 239.1 831.0
04/05 08:10 27.1 80 20.7 23.3 15 19 1011.5 0 44.3 42.2 82.9 219.5 244.3 848.9
04/05 08:00 27.1 82 21.22 23.8 11 15 1011.5 0 45.5 43.2 85.5 226.2 252.5 877.3
04/05 07:50 26.7 85 21.52 24 11 13 1011.3 0 46.1 44.0 87.4 231.3 258.6 898.5
04/05 07:40 26 89 21.67 24 11 15 1011 0 46.5 44.6 88.9 235.4 263.4 915.2
04/05 07:30 25.2 92 21.42 23.8 6 11 1011.2 0 46.1 44.6 88.6 234.6 262.2 911.0
04/05 07:20 24.8 95 21.62 23.9 0 0 1011.1 0 46.6 45.2 90.1 238.6 267.0 927.3
04/05 07:10 24.3 95 21.02 23.4 4 6 1011 0 45.4 44.3 87.7 232.1 258.9 899.1
04/05 07:00 24.1 95 20.79 23.2 6 9 1010.9 0 44.9 43.9 86.7 229.6 255.8 888.3
04/05 06:50 24.1 94 20.57 23.1 6 6 1010.7 0 44.4 43.4 85.6 226.6 252.2 875.7
04/05 06:40 24.2 94 20.68 23.2 6 7 1010.6 0 44.7 43.6 86.1 227.8 253.6 880.7
04/05 06:30 24.2 94 20.68 23.2 7 9 1010.5 0 44.7 43.6 86.1 227.8 253.6 880.7
04/05 06:20 24.4 93 20.7 23.2 7 7 1010.3 0 44.7 43.5 85.9 227.4 253.2 879.3
04/05 06:10 24.1 94 20.57 23.1 7 9 1010.1 0 44.4 43.4 85.6 226.5 252.1 875.4
04/05 06:00 24 94 20.45 23 6 7 1010.1 0 44.2 43.2 85.1 225.3 250.4 869.8
04/05 05:50 24.1 94 20.57 23.1 6 6 1009.9 0 44.4 43.4 85.6 226.5 252.0 875.3
04/05 05:40 24.3 93 20.58 23.1 4 6 1009.8 0 44.4 43.3 85.4 226.0 251.5 873.4
04/05 05:30 24.3 93 20.58 23.1 7 9 1009.7 0 44.4 43.3 85.4 226.0 251.5 873.4
04/05 05:20 24.3 95 21.02 23.4 7 9 1009.5 0 45.4 44.2 87.6 231.8 258.6 898.2
04/05 05:10 24.3 96 21.24 23.6 7 9 1009.6 0 45.8 44.6 88.7 234.8 262.2 910.8
04/05 05:00 24 96 20.89 23.3 6 7 1009.7 0 45.1 44.1 87.3 231.0 257.6 894.5
04/05 04:50 24 95 20.67 23.1 6 7 1009.7 0 44.7 43.7 86.2 228.1 254.0 882.0
04/05 04:40 24.1 96 21 23.4 9 11 1009.7 0 45.4 44.3 87.7 232.2 259.0 899.6
04/05 04:30 24 96 20.89 23.3 7 9 1009.8 0 45.1 44.1 87.3 231.1 257.6 894.6
04/05 04:20 24 96 20.89 23.3 7 7 1009.8 0 45.1 44.1 87.3 231.1 257.6 894.6
04/05 04:10 23.9 96 20.77 23.2 6 7 1009.9 0 44.9 43.9 86.8 229.8 256.0 889.0
04/05 04:00 24.1 96 21 23.4 6 7 1010 0 45.4 44.3 87.7 232.3 259.1 899.8
04/05 03:50 24.1 96 21 23.4 7 7 1010 0 45.4 44.3 87.7 232.3 259.1 899.8
04/05 03:40 24.1 96 21 23.4 6 6 1010.2 0 45.4 44.3 87.8 232.3 259.1 899.9
04/05 03:30 24.1 95 20.79 23.2 6 9 1010.3 0 44.9 43.9 86.7 229.5 255.7 888.0
04/05 03:20 24.2 95 20.9 23.3 7 7 1010.3 0 45.1 44.0 87.1 230.7 257.1 893.0
04/05 03:10 24.4 94 20.92 23.4 6 7 1010.4 0 45.1 44.0 87.0 230.3 256.8 891.8
04/05 03:00 24.6 93 20.93 23.4 7 11 1010.4 0 45.1 43.9 86.8 229.8 256.2 890.0
04/05 02:50 24.7 93 21.05 23.5 7 9 1010.2 0 45.4 44.1 87.3 231.1 257.8 895.5
04/05 02:40 24.9 92 21.06 23.5 7 9 1010.3 0 45.4 44.0 87.1 230.6 257.3 893.7
04/05 02:30 25.1 91 21.07 23.5 9 11 1010.4 0 45.4 43.9 86.9 230.2 256.8 891.9
04/05 02:20 25.2 91 21.18 23.6 9 9 1010.2 0 45.6 44.1 87.4 231.3 258.2 896.8
04/05 02:10 25.3 90 21.07 23.5 9 11 1010.2 0 45.4 43.8 86.7 229.5 256.0 889.4
04/05 02:00 25.3 90 21.07 23.5 9 11 1010.4 0 45.4 43.8 86.7 229.5 256.1 889.5
04/05 01:50 25.6 89 21.19 23.6 9 11 1010.4 0 45.6 43.9 87.0 230.2 257.0 892.7
04/05 01:40 25.6 89 21.19 23.6 9 11 1010.6 0 45.6 43.9 87.0 230.2 257.0 892.8
04/05 01:30 25.7 88 21.07 23.6 9 11 1010.8 0 45.3 43.6 86.3 228.4 254.8 885.0
04/05 01:20 25.8 88 21.19 23.7 7 9 1010.8 0 45.5 43.8 86.8 229.6 256.3 890.5
04/05 01:10 25.6 90 21.43 23.8 11 13 1010.8 0 46.1 44.4 88.2 233.4 260.9 906.4
04/05 01:00 25.2 91 21.18 23.6 7 9 1011 0 45.6 44.1 87.4 231.4 258.3 897.3
04/05 00:50 25.4 90 21.19 23.6 7 9 1011.1 0 45.6 44.0 87.2 230.9 257.8 895.5
04/05 00:40 25.3 90 21.07 23.5 6 7 1011.1 0 45.4 43.8 86.8 229.7 256.2 890.0
04/05 00:30 25.4 90 21.19 23.6 6 7 1011.3 0 45.6 44.0 87.3 231.0 257.8 895.6
04/05 00:20 25.6 90 21.43 23.8 6 6 1011.3 0 46.1 44.4 88.2 233.5 261.0 906.7
04/05 00:10 25.7 89 21.31 23.7 6 6 1011.3 0 45.8 44.1 87.5 231.6 258.7 898.8
04/05 00:00 25.7 90 21.55 23.9 7 7 1011.4 0 46.3 44.6 88.7 234.8 262.6 912.4
03/05 23:50 25.8 89 21.43 23.8 6 7 1011.2 0 46.1 44.3 88.0 232.9 260.3 904.2
03/05 23:40 25.9 89 21.55 23.9 6 9 1011.3 0 46.3 44.5 88.5 234.2 261.9 909.8
03/05 23:30 25.8 89 21.43 23.8 7 9 1011.3 0 46.1 44.3 88.0 232.9 260.3 904.3
03/05 23:20 25.7 90 21.55 23.9 7 9 1011.3 0 46.3 44.6 88.7 234.8 262.6 912.3
03/05 23:10 25.8 90 21.67 24 6 7 1011.4 0 46.6 44.8 89.2 236.1 264.2 917.9
03/05 23:00 25.8 90 21.67 24 7 9 1011.7 0 46.6 44.8 89.2 236.1 264.3 918.1
03/05 22:50 25.8 89 21.43 23.8 7 9 1011.7 0 46.1 44.3 88.0 233.0 260.4 904.5
03/05 22:40 25.9 89 21.55 23.9 6 7 1011.8 0 46.3 44.5 88.5 234.3 262.0 910.1
03/05 22:30 25.9 90 21.79 24.1 6 9 1012 0 46.8 45.0 89.7 237.5 265.9 923.8
03/05 22:20 25.9 90 21.79 24.1 7 11 1011.9 0 46.8 45.0 89.7 237.5 265.9 923.8
03/05 22:10 26 90 21.91 24.2 6 7 1011.9 0 47.1 45.2 90.2 238.7 267.5 929.3
03/05 22:00 26.1 91 22.28 24.5 7 11 1012 0 47.8 45.9 91.9 243.4 273.2 949.2
03/05 21:50 26.1 90 22.03 24.3 6 7 1011.9 0 47.3 45.3 90.7 240.0 269.1 934.9
03/05 21:40 26.2 91 22.4 24.6 7 9 1011.9 0 48.1 46.0 92.4 244.6 274.8 954.7
03/05 21:30 26.4 91 22.65 24.8 7 11 1011.9 0 48.6 46.4 93.4 247.3 278.2 966.5
03/05 21:20 26.5 91 22.78 24.9 7 9 1011.8 0 48.8 46.6 93.9 248.7 279.9 972.6
03/05 21:10 26.4 91 22.65 24.8 7 9 1011.7 0 48.6 46.4 93.4 247.3 278.1 966.3
03/05 21:00 26.5 91 22.78 24.9 6 7 1011.8 0 48.8 46.6 93.9 248.7 279.9 972.6
03/05 20:50 26.5 91 22.78 24.9 7 9 1011.6 0 48.8 46.6 93.9 248.7 279.9 972.4
03/05 20:40 26.7 90 22.78 24.9 7 7 1011.5 0 48.8 46.5 93.7 248.0 279.1 969.8
03/05 20:30 26.8 89 22.65 24.8 4 7 1011.6 0 48.5 46.2 92.9 246.0 276.6 961.1
03/05 20:20 27.2 88 22.9 25 6 6 1011.4 0 49.0 46.5 93.6 248.0 279.2 970.0
03/05 20:10 27.5 87 23.02 25.1 4 6 1011.4 0 49.2 46.5 93.9 248.6 280.0 973.0
03/05 20:00 27.5 86 22.75 24.9 6 7 1011.4 0 48.7 46.0 92.5 245.0 275.6 957.6
03/05 19:50 27.7 85 22.74 24.9 6 6 1011.2 0 48.6 45.8 92.2 244.1 274.6 954.4
03/05 19:40 27.8 84 22.6 24.8 6 6 1011 0 48.3 45.5 91.4 241.9 272.0 945.1
03/05 19:30 27.8 84 22.6 24.8 7 9 1011 0 48.3 45.5 91.4 241.9 272.0 945.1
03/05 19:20 27.9 84 22.72 24.9 7 9 1010.8 0 48.5 45.7 91.8 243.2 273.5 950.5
03/05 19:10 27.9 84 22.72 24.9 6 7 1010.8 0 48.5 45.7 91.8 243.2 273.5 950.5
03/05 19:00 28 83 22.57 24.8 7 9 1010.7 0 48.2 45.3 90.9 240.8 270.7 940.7
03/05 18:50 28.1 82 22.42 24.7 9 11 1010.5 0 47.9 45.0 90.1 238.5 267.9 931.0
03/05 18:40 28.2 81 22.27 24.6 7 9 1010.4 0 47.6 44.6 89.2 236.2 265.1 921.4
03/05 18:30 28.3 81 22.4 24.7 9 13 1010.5 0 47.8 44.8 89.7 237.6 266.8 927.4
03/05 18:20 28.4 80 22.24 24.6 7 9 1010.4 0 47.5 44.4 88.8 235.2 263.9 917.3
03/05 18:10 28.5 80 22.36 24.7 11 15 1010.3 0 47.7 44.6 89.3 236.4 265.4 922.6
03/05 18:00 28.7 79 22.33 24.7 9 11 1010.3 0 47.6 44.4 88.9 235.4 264.3 918.5
03/05 17:50 28.9 78 22.29 24.7 6 7 1010.2 0 47.5 44.3 88.5 234.3 262.9 913.8
03/05 17:40 29 76 21.83 24.3 7 9 1010.1 0 46.5 43.3 86.1 228.1 255.3 887.5
03/05 17:30 29.1 77 22.24 24.7 9 15 1010.2 0 47.4 44.0 88.0 233.0 261.4 908.6
03/05 17:20 29.1 76 21.95 24.4 11 13 1010.1 0 46.8 43.5 86.6 229.3 256.8 892.8
03/05 17:10 29.4 75 22.02 24.5 11 13 1010.1 0 46.9 43.5 86.6 229.3 256.9 893.0
03/05 17:00 29.5 72 21.25 24.1 13 20 1010.1 0 45.2 41.9 82.8 219.3 244.7 850.6
03/05 16:50 29.8 73 21.9 24.4 13 15 1010 0 46.6 43.0 85.5 226.5 253.7 881.8
03/05 16:40 29.7 73 21.78 24.3 17 20 1009.9 0 46.3 42.8 85.1 225.3 252.1 876.5
03/05 16:30 29.5 72 21.25 23.9 17 28 1009.7 0 45.2 41.9 82.8 219.2 244.6 850.4
03/05 16:20 29.8 71 21.3 24 19 24 1009.6 0 45.3 41.9 82.7 219.0 244.4 849.6
03/05 16:10 30 71 21.53 24.2 19 22 1009.5 0 45.8 42.2 83.5 221.2 247.2 859.5
03/05 16:00 30.1 70 21.35 24 17 24 1009.6 0 45.4 41.8 82.6 218.7 244.2 848.9

Last Refresh: 04-May-2026 08:39:55

Bureau of Meteorology